createdAt,value
2016-09-18T00:00:00.820Z,0
2016-09-18T00:01:00.553Z,0
2016-09-18T00:02:01.288Z,0
2016-09-18T00:03:02.777Z,0
2016-09-18T00:04:01.292Z,0
2016-09-18T00:04:59.999Z,0
2016-09-18T00:05:59.801Z,0
2016-09-18T00:07:01.501Z,0
2016-09-18T00:08:01.186Z,0
2016-09-18T00:09:01.483Z,0
2016-09-18T00:10:02.826Z,0
2016-09-18T00:11:01.920Z,0
2016-09-18T00:12:02.393Z,0
2016-09-18T00:13:01.447Z,0
2016-09-18T00:14:01.908Z,0
2016-09-18T00:14:59.392Z,0
2016-09-18T00:16:00.948Z,0
2016-09-18T00:17:02.333Z,0
2016-09-18T00:18:01.348Z,0
2016-09-18T00:19:01.306Z,0
2016-09-18T00:20:01.037Z,0
2016-09-18T00:21:02.470Z,0
2016-09-18T00:22:01.869Z,0
2016-09-18T00:23:02.885Z,0
2016-09-18T00:24:02.115Z,0
2016-09-18T00:25:00.669Z,0
2016-09-18T00:26:01.328Z,0
2016-09-18T00:27:03.459Z,0
2016-09-18T00:28:00.869Z,0
2016-09-18T00:29:02.405Z,0
2016-09-18T00:30:00.873Z,0
2016-09-18T00:31:01.593Z,0
2016-09-18T00:32:03.905Z,0
2016-09-18T00:33:00.894Z,0
2016-09-18T00:34:02.025Z,0
2016-09-18T00:35:03.129Z,0
2016-09-18T00:36:03.301Z,0
2016-09-18T00:37:01.870Z,0
2016-09-18T00:38:01.744Z,0
2016-09-18T00:39:02.855Z,0
2016-09-18T00:40:01.714Z,0
2016-09-18T00:41:00.713Z,0
2016-09-18T00:42:03.471Z,0
2016-09-18T00:43:01.357Z,0
2016-09-18T00:44:02.930Z,0
2016-09-18T00:45:02.002Z,0
2016-09-18T00:46:02.619Z,0
2016-09-18T00:47:01.062Z,0
2016-09-18T00:48:01.445Z,0
2016-09-18T00:49:02.131Z,0
2016-09-18T00:50:03.738Z,0
2016-09-18T00:51:02.850Z,0
2016-09-18T00:52:01.170Z,0
2016-09-18T00:53:02.111Z,0
2016-09-18T00:54:01.933Z,0
2016-09-18T00:55:02.279Z,0
2016-09-18T00:56:03.641Z,0
2016-09-18T00:57:01.722Z,0
2016-09-18T00:58:01.103Z,0
2016-09-18T00:59:02.514Z,0
2016-09-18T01:00:01.224Z,0
2016-09-18T01:01:02.908Z,0
2016-09-18T01:02:01.905Z,0
2016-09-18T01:03:04.381Z,0
2016-09-18T01:04:03.827Z,0
2016-09-18T01:05:05.543Z,0
2016-09-18T01:06:03.962Z,0
2016-09-18T01:07:02.323Z,0
2016-09-18T01:08:00.830Z,0
2016-09-18T01:09:02.402Z,0
2016-09-18T01:10:03.440Z,0
2016-09-18T01:11:02.734Z,0
2016-09-18T01:12:01.048Z,0
2016-09-18T01:13:02.167Z,0
2016-09-18T01:14:03.369Z,0
2016-09-18T01:15:02.763Z,0
2016-09-18T01:16:03.548Z,0
2016-09-18T01:17:02.668Z,0
2016-09-18T01:18:03.711Z,0
2016-09-18T01:19:03.668Z,0
2016-09-18T01:20:04.128Z,0
2016-09-18T01:21:03.705Z,0
2016-09-18T01:22:04.040Z,0
2016-09-18T01:23:02.850Z,0
2016-09-18T01:24:01.581Z,0
2016-09-18T01:25:04.151Z,0
2016-09-18T01:26:04.673Z,0
2016-09-18T01:27:03.253Z,0
2016-09-18T01:28:01.814Z,0
2016-09-18T01:29:02.249Z,0
2016-09-18T01:30:02.257Z,0
2016-09-18T01:31:03.842Z,0
2016-09-18T01:32:02.003Z,0
2016-09-18T01:33:04.161Z,0
2016-09-18T01:34:03.813Z,0
2016-09-18T01:35:04.693Z,0
2016-09-18T01:36:03.612Z,0
2016-09-18T01:37:03.714Z,0
2016-09-18T01:38:04.836Z,0
2016-09-18T01:39:01.541Z,0
2016-09-18T01:40:02.290Z,0
2016-09-18T01:41:03.543Z,0
2016-09-18T01:42:03.229Z,0
2016-09-18T01:43:03.982Z,0
2016-09-18T01:44:02.610Z,0
2016-09-18T01:45:04.586Z,0
2016-09-18T01:46:02.892Z,0
2016-09-18T01:47:04.075Z,0
2016-09-18T01:48:04.129Z,0
2016-09-18T01:49:06.255Z,0
2016-09-18T01:50:03.551Z,0
2016-09-18T01:51:03.979Z,0
2016-09-18T01:52:03.774Z,0
2016-09-18T01:53:03.662Z,0
2016-09-18T01:54:04.441Z,0
2016-09-18T01:55:03.770Z,0
2016-09-18T01:56:02.965Z,0
2016-09-18T01:57:04.749Z,0
2016-09-18T01:58:03.923Z,0
2016-09-18T01:59:02.973Z,0
2016-09-18T02:00:03.298Z,0
2016-09-18T02:01:03.281Z,0
2016-09-18T02:02:04.731Z,0
2016-09-18T02:03:03.860Z,0
2016-09-18T02:04:03.827Z,0
2016-09-18T02:05:03.083Z,0
2016-09-18T02:06:03.384Z,0
2016-09-18T02:07:04.365Z,0
2016-09-18T02:08:04.169Z,0
2016-09-18T02:09:02.965Z,0
2016-09-18T02:10:04.787Z,0
2016-09-18T02:11:02.991Z,0
2016-09-18T02:12:02.737Z,0
2016-09-18T02:13:04.723Z,0
2016-09-18T02:14:03.872Z,0
2016-09-18T02:15:02.224Z,0
2016-09-18T02:16:03.718Z,0
2016-09-18T02:17:04.395Z,0
2016-09-18T02:18:03.926Z,0
2016-09-18T02:19:02.941Z,0
2016-09-18T02:20:04.413Z,0
2016-09-18T02:21:04.232Z,0
2016-09-18T02:22:02.316Z,0
2016-09-18T02:23:05.805Z,0
2016-09-18T02:24:03.781Z,0
2016-09-18T02:25:04.386Z,0
2016-09-18T02:26:03.314Z,0
2016-09-18T02:27:03.900Z,0
2016-09-18T02:28:05.654Z,0
2016-09-18T02:29:03.580Z,0
2016-09-18T02:30:04.998Z,0
2016-09-18T02:31:03.956Z,0
2016-09-18T02:32:03.343Z,0
2016-09-18T02:33:04.723Z,0
2016-09-18T02:34:05.569Z,0
2016-09-18T02:35:04.559Z,0
2016-09-18T02:36:04.094Z,0
2016-09-18T02:37:03.186Z,0
2016-09-18T02:38:04.194Z,0
2016-09-18T02:39:05.612Z,0
2016-09-18T02:40:04.994Z,0
2016-09-18T02:41:03.867Z,0
2016-09-18T02:42:03.867Z,0
2016-09-18T02:43:04.931Z,0
2016-09-18T02:44:04.458Z,0
2016-09-18T02:45:03.697Z,0
2016-09-18T02:46:05.442Z,0
2016-09-18T02:47:06.196Z,0
2016-09-18T02:48:06.579Z,0
2016-09-18T02:49:04.189Z,0
2016-09-18T02:50:06.254Z,0
2016-09-18T02:51:04.825Z,0
2016-09-18T02:52:05.408Z,0
2016-09-18T02:53:05.090Z,0
2016-09-18T02:54:04.424Z,0
2016-09-18T02:55:03.737Z,0
2016-09-18T02:56:04.524Z,0
2016-09-18T02:57:04.272Z,0
2016-09-18T02:58:04.753Z,0
2016-09-18T02:59:05.970Z,0
2016-09-18T03:00:04.568Z,0
2016-09-18T03:01:05.416Z,0
2016-09-18T03:02:05.529Z,0
2016-09-18T03:03:04.252Z,0
2016-09-18T03:04:03.809Z,0
2016-09-18T03:05:04.558Z,0
2016-09-18T03:06:04.144Z,0
2016-09-18T03:07:04.817Z,0
2016-09-18T03:08:06.423Z,0
2016-09-18T03:09:04.636Z,0
2016-09-18T03:10:06.369Z,0
2016-09-18T03:11:04.680Z,0
2016-09-18T03:12:05.055Z,0
2016-09-18T03:13:05.625Z,0
2016-09-18T03:14:06.091Z,0
2016-09-18T03:15:05.865Z,0
2016-09-18T03:16:03.980Z,0
2016-09-18T03:17:06.583Z,0
2016-09-18T03:18:06.160Z,0
2016-09-18T03:19:05.635Z,0
2016-09-18T03:20:06.210Z,0
2016-09-18T03:21:05.761Z,0
2016-09-18T03:22:05.629Z,0
2016-09-18T03:23:07.441Z,0
2016-09-18T03:24:05.300Z,0
2016-09-18T03:25:04.633Z,0
2016-09-18T03:26:06.036Z,0
2016-09-18T03:27:04.987Z,0
2016-09-18T03:28:05.985Z,0
2016-09-18T03:29:07.057Z,0
2016-09-18T03:30:05.742Z,0
2016-09-18T03:31:04.688Z,0
2016-09-18T03:32:06.300Z,0
2016-09-18T03:33:07.691Z,0
2016-09-18T03:34:06.465Z,0
2016-09-18T03:35:05.680Z,0
2016-09-18T03:36:05.206Z,0
2016-09-18T03:37:08.276Z,0
2016-09-18T03:38:06.348Z,0
2016-09-18T03:39:06.064Z,0
2016-09-18T03:40:05.441Z,0
2016-09-18T03:41:06.947Z,0
2016-09-18T03:42:06.113Z,0
2016-09-18T03:43:05.106Z,0
2016-09-18T03:44:06.079Z,0
2016-09-18T03:45:05.777Z,0
2016-09-18T03:46:05.881Z,0
2016-09-18T03:47:05.925Z,0
2016-09-18T03:48:08.369Z,0
2016-09-18T03:49:06.390Z,0
2016-09-18T03:50:06.581Z,0
2016-09-18T03:51:06.869Z,0
2016-09-18T03:52:06.028Z,0
2016-09-18T03:53:05.015Z,0
2016-09-18T03:54:05.789Z,0
2016-09-18T03:55:05.003Z,0
2016-09-18T03:56:06.589Z,0
2016-09-18T03:57:06.379Z,0
2016-09-18T03:58:08.360Z,0
2016-09-18T03:59:06.572Z,0
2016-09-18T04:00:08.180Z,0
2016-09-18T04:01:06.090Z,0
2016-09-18T04:02:06.154Z,0
2016-09-18T04:03:06.357Z,0
2016-09-18T04:04:05.626Z,0
2016-09-18T04:05:05.512Z,0
2016-09-18T04:06:08.783Z,0
2016-09-18T04:07:06.726Z,0
2016-09-18T04:08:09.540Z,0
2016-09-18T04:09:06.449Z,0
2016-09-18T04:10:07.244Z,0
2016-09-18T04:11:06.636Z,0
2016-09-18T04:12:06.397Z,0
2016-09-18T04:13:04.979Z,0
2016-09-18T04:14:06.218Z,0
2016-09-18T04:15:05.658Z,0
2016-09-18T04:16:06.124Z,0
2016-09-18T04:17:06.428Z,0
2016-09-18T04:18:08.030Z,0
2016-09-18T04:19:06.202Z,0
2016-09-18T04:20:06.504Z,0
2016-09-18T04:21:08.943Z,0
2016-09-18T04:22:07.309Z,0
2016-09-18T04:23:09.500Z,0
2016-09-18T04:24:06.624Z,0
2016-09-18T04:25:06.683Z,0
2016-09-18T04:26:06.327Z,0
2016-09-18T04:27:07.549Z,0
2016-09-18T04:28:07.352Z,0
2016-09-18T04:29:07.221Z,0
2016-09-18T04:30:08.518Z,0
2016-09-18T04:31:06.198Z,0
2016-09-18T04:32:08.389Z,0
2016-09-18T04:33:05.288Z,0
2016-09-18T04:34:05.171Z,0
2016-09-18T04:35:04.985Z,0
2016-09-18T04:36:04.645Z,0
2016-09-18T04:37:05.162Z,0
2016-09-18T04:38:07.086Z,0
2016-09-18T04:39:07.474Z,0
2016-09-18T04:40:09.393Z,0
2016-09-18T04:41:07.351Z,0
2016-09-18T04:42:06.309Z,0
2016-09-18T04:43:06.172Z,0
2016-09-18T04:44:06.627Z,0
2016-09-18T04:45:06.690Z,0
2016-09-18T04:46:09.108Z,0
2016-09-18T04:47:08.494Z,0
2016-09-18T04:48:07.546Z,0
2016-09-18T04:49:07.154Z,0
2016-09-18T04:50:08.072Z,0
2016-09-18T04:51:09.649Z,0
2016-09-18T04:52:06.589Z,0
2016-09-18T04:53:08.582Z,0
2016-09-18T04:54:08.000Z,0
2016-09-18T04:55:08.273Z,0
2016-09-18T04:56:07.864Z,0
2016-09-18T04:57:07.390Z,0
2016-09-18T04:58:09.476Z,5
2016-09-18T04:59:08.748Z,5
2016-09-18T05:00:06.597Z,5
2016-09-18T05:01:07.542Z,5
2016-09-18T05:02:07.555Z,10
2016-09-18T05:03:06.637Z,10
2016-09-18T05:04:08.935Z,10
2016-09-18T05:05:07.810Z,10
2016-09-18T05:06:06.790Z,10
2016-09-18T05:07:10.754Z,10
2016-09-18T05:08:08.036Z,10
2016-09-18T05:09:06.828Z,10
2016-09-18T05:10:08.113Z,15
2016-09-18T05:11:07.431Z,20
2016-09-18T05:12:08.010Z,20
2016-09-18T05:13:07.975Z,15
2016-09-18T05:14:07.692Z,15
2016-09-18T05:15:07.230Z,15
2016-09-18T05:16:09.184Z,20
2016-09-18T05:17:07.790Z,20
2016-09-18T05:18:08.127Z,25
2016-09-18T05:19:07.173Z,25
2016-09-18T05:20:08.524Z,30
2016-09-18T05:21:07.563Z,35
2016-09-18T05:22:09.453Z,35
2016-09-18T05:23:07.731Z,35
2016-09-18T05:24:08.084Z,40
2016-09-18T05:25:09.847Z,40
2016-09-18T05:26:08.636Z,40
2016-09-18T05:27:08.507Z,40
2016-09-18T05:28:08.248Z,45
2016-09-18T05:29:09.866Z,45
2016-09-18T05:30:09.677Z,50
2016-09-18T05:31:07.651Z,55
2016-09-18T05:32:09.567Z,55
2016-09-18T05:33:10.475Z,70
2016-09-18T05:34:08.055Z,75
2016-09-18T05:35:07.781Z,75
2016-09-18T05:36:09.974Z,70
2016-09-18T05:37:07.973Z,60
2016-09-18T05:38:09.403Z,50
2016-09-18T05:39:10.877Z,60
2016-09-18T05:40:07.509Z,70
2016-09-18T05:41:08.501Z,70
2016-09-18T05:42:07.558Z,70
2016-09-18T05:43:08.919Z,65
2016-09-18T05:44:09.103Z,60
2016-09-18T05:45:08.494Z,60
2016-09-18T05:46:09.755Z,55
2016-09-18T05:47:08.292Z,55
2016-09-18T05:48:07.805Z,65
2016-09-18T05:49:08.008Z,75
2016-09-18T05:50:08.685Z,80
2016-09-18T05:51:07.457Z,80
2016-09-18T05:52:09.010Z,90
2016-09-18T05:53:08.305Z,105
2016-09-18T05:54:08.388Z,100
2016-09-18T05:55:07.551Z,110
2016-09-18T05:56:08.945Z,130
2016-09-18T05:57:08.695Z,135
2016-09-18T05:58:09.284Z,150
2016-09-18T05:59:09.731Z,185
2016-09-18T06:00:09.190Z,200
2016-09-18T06:01:09.381Z,225
2016-09-18T06:02:09.108Z,240
2016-09-18T06:03:07.783Z,245
2016-09-18T06:04:08.511Z,245
2016-09-18T06:05:08.304Z,240
2016-09-18T06:06:08.164Z,240
2016-09-18T06:07:08.263Z,230
2016-09-18T06:08:07.936Z,235
2016-09-18T06:09:09.810Z,245
2016-09-18T06:10:10.324Z,235
2016-09-18T06:11:08.131Z,230
2016-09-18T06:12:07.821Z,215
2016-09-18T06:13:07.409Z,210
2016-09-18T06:14:08.309Z,205
2016-09-18T06:15:08.614Z,170
2016-09-18T06:16:09.468Z,140
2016-09-18T06:17:08.145Z,130
2016-09-18T06:18:07.545Z,140
2016-09-18T06:19:08.630Z,140
2016-09-18T06:20:08.251Z,125
2016-09-18T06:21:09.701Z,115
2016-09-18T06:22:10.093Z,105
2016-09-18T06:23:08.435Z,120
2016-09-18T06:24:09.515Z,155
2016-09-18T06:25:10.667Z,165
2016-09-18T06:26:10.424Z,165
2016-09-18T06:27:08.855Z,160
2016-09-18T06:28:08.220Z,160
2016-09-18T06:29:10.103Z,170
2016-09-18T06:30:07.830Z,180
2016-09-18T06:31:11.035Z,195
2016-09-18T06:32:08.011Z,210
2016-09-18T06:33:09.616Z,210
2016-09-18T06:34:08.911Z,210
2016-09-18T06:35:10.474Z,200
2016-09-18T06:36:09.282Z,190
2016-09-18T06:37:09.460Z,210
2016-09-18T06:38:08.477Z,225
2016-09-18T06:39:10.216Z,215
2016-09-18T06:40:12.045Z,205
2016-09-18T06:41:09.723Z,215
2016-09-18T06:42:10.497Z,255
2016-09-18T06:43:10.860Z,290
2016-09-18T06:44:10.102Z,300
2016-09-18T06:45:10.368Z,295
2016-09-18T06:46:09.426Z,265
2016-09-18T06:47:09.812Z,250
2016-09-18T06:48:09.262Z,230
2016-09-18T06:49:10.174Z,235
2016-09-18T06:50:10.361Z,250
2016-09-18T06:51:10.411Z,265
2016-09-18T06:52:08.929Z,265
2016-09-18T06:53:09.471Z,255
2016-09-18T06:54:11.163Z,245
2016-09-18T06:55:09.476Z,225
2016-09-18T06:56:10.336Z,215
2016-09-18T06:57:10.549Z,235
2016-09-18T06:58:10.927Z,260
2016-09-18T06:59:09.674Z,265
2016-09-18T07:00:09.876Z,290
2016-09-18T07:01:09.227Z,295
2016-09-18T07:02:09.427Z,330
2016-09-18T07:03:09.201Z,380
2016-09-18T07:04:09.747Z,390
2016-09-18T07:05:08.868Z,425
2016-09-18T07:06:12.023Z,455
2016-09-18T07:07:10.669Z,440
2016-09-18T07:08:09.598Z,450
2016-09-18T07:09:10.632Z,460
2016-09-18T07:10:10.624Z,505
2016-09-18T07:11:10.305Z,500
2016-09-18T07:12:08.415Z,490
2016-09-18T07:13:11.712Z,470
2016-09-18T07:14:10.636Z,460
2016-09-18T07:15:09.626Z,455
2016-09-18T07:16:11.729Z,460
2016-09-18T07:17:08.358Z,470
2016-09-18T07:18:08.389Z,490
2016-09-18T07:19:09.590Z,510
2016-09-18T07:20:11.524Z,525
2016-09-18T07:21:10.875Z,550
2016-09-18T07:22:11.148Z,620
2016-09-18T07:23:10.713Z,670
2016-09-18T07:24:10.462Z,715
2016-09-18T07:25:09.338Z,700
2016-09-18T07:26:11.826Z,655
2016-09-18T07:27:10.612Z,670
2016-09-18T07:28:09.411Z,675
2016-09-18T07:29:10.106Z,670
2016-09-18T07:30:10.712Z,645
2016-09-18T07:31:09.567Z,630
2016-09-18T07:32:10.343Z,670
2016-09-18T07:33:10.298Z,705
2016-09-18T07:34:10.303Z,685
2016-09-18T07:35:10.878Z,675
2016-09-18T07:36:09.517Z,635
2016-09-18T07:37:11.809Z,640
2016-09-18T07:38:12.500Z,635
2016-09-18T07:39:09.497Z,640
2016-09-18T07:40:10.531Z,640
2016-09-18T07:41:10.734Z,610
2016-09-18T07:42:11.154Z,590
2016-09-18T07:43:11.225Z,555
2016-09-18T07:44:09.599Z,495
2016-09-18T07:45:10.685Z,485
2016-09-18T07:46:10.900Z,455
2016-09-18T07:47:10.995Z,440
2016-09-18T07:48:12.020Z,390
2016-09-18T07:49:10.210Z,355
2016-09-18T07:50:12.013Z,405
2016-09-18T07:51:12.614Z,425
2016-09-18T07:52:11.643Z,430
2016-09-18T07:53:12.884Z,435
2016-09-18T07:54:10.367Z,410
2016-09-18T07:55:09.983Z,410
2016-09-18T07:56:11.693Z,385
2016-09-18T07:57:10.509Z,340
2016-09-18T07:58:11.859Z,330
2016-09-18T07:59:11.821Z,335
2016-09-18T08:00:11.693Z,350
2016-09-18T08:01:13.748Z,380
2016-09-18T08:02:10.610Z,435
2016-09-18T08:03:13.212Z,415
2016-09-18T08:04:11.230Z,355
2016-09-18T08:05:10.870Z,360
2016-09-18T08:06:10.782Z,365
2016-09-18T08:07:09.976Z,380
2016-09-18T08:08:13.191Z,430
2016-09-18T08:09:11.017Z,415
2016-09-18T08:10:11.009Z,335
2016-09-18T08:11:10.300Z,345
2016-09-18T08:12:10.553Z,475
2016-09-18T08:13:10.558Z,540
2016-09-18T08:14:12.289Z,480
2016-09-18T08:15:11.113Z,465
2016-09-18T08:16:11.099Z,485
2016-09-18T08:17:10.580Z,435
2016-09-18T08:18:10.826Z,405
2016-09-18T08:19:11.034Z,410
2016-09-18T08:20:11.892Z,440
2016-09-18T08:21:10.893Z,495
2016-09-18T08:22:12.076Z,505
2016-09-18T08:23:11.519Z,490
2016-09-18T08:24:10.443Z,510
2016-09-18T08:25:11.194Z,560
2016-09-18T08:26:12.354Z,570
2016-09-18T08:27:12.771Z,545
2016-09-18T08:28:10.981Z,540
2016-09-18T08:29:12.089Z,555
2016-09-18T08:30:12.997Z,565
2016-09-18T08:31:12.487Z,590
2016-09-18T08:32:10.528Z,550
2016-09-18T08:33:10.943Z,595
2016-09-18T08:34:11.070Z,680
2016-09-18T08:35:12.495Z,1110
2016-09-18T08:36:12.756Z,1160
2016-09-18T08:37:12.670Z,1125
2016-09-18T08:38:13.097Z,775
2016-09-18T08:39:14.846Z,1185
2016-09-18T08:40:12.724Z,780
2016-09-18T08:41:11.846Z,1275
2016-09-18T08:42:13.552Z,1480
2016-09-18T08:43:13.532Z,725
2016-09-18T08:44:12.591Z,620
2016-09-18T08:45:13.297Z,1110
2016-09-18T08:46:12.579Z,605
2016-09-18T08:47:11.446Z,625
2016-09-18T08:48:11.146Z,720
2016-09-18T08:49:13.646Z,970
2016-09-18T08:50:14.271Z,915
2016-09-18T08:51:13.610Z,760
2016-09-18T08:52:12.748Z,755
2016-09-18T08:53:10.971Z,1175
2016-09-18T08:54:13.981Z,675
2016-09-18T08:55:12.068Z,655
2016-09-18T08:56:12.090Z,800
2016-09-18T08:57:12.996Z,695
2016-09-18T08:58:13.300Z,765
2016-09-18T08:59:13.087Z,1170
2016-09-18T09:00:13.391Z,1410
2016-09-18T09:01:13.159Z,970
2016-09-18T09:02:13.057Z,1400
2016-09-18T09:03:11.606Z,1270
2016-09-18T09:04:12.932Z,1455
2016-09-18T09:05:12.118Z,1330
2016-09-18T09:06:13.439Z,1485
2016-09-18T09:07:13.669Z,1640
2016-09-18T09:08:13.110Z,1610
2016-09-18T09:09:12.646Z,875
2016-09-18T09:10:11.547Z,835
2016-09-18T09:11:13.456Z,800
2016-09-18T09:12:12.446Z,805
2016-09-18T09:13:12.964Z,1185
2016-09-18T09:14:12.911Z,885
2016-09-18T09:15:11.745Z,1175
2016-09-18T09:16:14.129Z,690
2016-09-18T09:17:13.700Z,765
2016-09-18T09:18:12.366Z,935
2016-09-18T09:19:12.433Z,1435
2016-09-18T09:20:14.728Z,1185
2016-09-18T09:21:14.053Z,770
2016-09-18T09:22:13.091Z,795
2016-09-18T09:23:14.902Z,985
2016-09-18T09:24:14.762Z,1025
2016-09-18T09:25:12.864Z,645
2016-09-18T09:26:13.508Z,660
2016-09-18T09:27:12.455Z,1035
2016-09-18T09:28:12.117Z,810
2016-09-18T09:29:12.940Z,1065
2016-09-18T09:30:13.222Z,955
2016-09-18T09:31:14.079Z,830
2016-09-18T09:32:14.815Z,930
2016-09-18T09:33:13.324Z,1185
2016-09-18T09:34:12.992Z,1105
2016-09-18T09:35:14.928Z,1060
2016-09-18T09:36:13.689Z,1095
2016-09-18T09:37:13.244Z,1065
2016-09-18T09:38:13.307Z,1025
2016-09-18T09:39:13.757Z,970
2016-09-18T09:40:12.756Z,930
2016-09-18T09:41:11.566Z,925
2016-09-18T09:42:11.706Z,955
2016-09-18T09:43:14.007Z,1000
2016-09-18T09:44:13.335Z,1185
2016-09-18T09:45:13.083Z,1250
2016-09-18T09:46:12.336Z,1180
2016-09-18T09:47:12.316Z,1285
2016-09-18T09:48:14.027Z,1205
2016-09-18T09:49:16.444Z,940
2016-09-18T09:50:14.441Z,1080
2016-09-18T09:51:13.496Z,1190
2016-09-18T09:52:13.202Z,1220
2016-09-18T09:53:13.516Z,1170
2016-09-18T09:54:13.863Z,1185
2016-09-18T09:55:12.663Z,1205
2016-09-18T09:56:13.248Z,1160
2016-09-18T09:57:15.658Z,1220
2016-09-18T09:58:13.906Z,1190
2016-09-18T09:59:15.274Z,1240
2016-09-18T10:00:14.838Z,980
2016-09-18T10:01:14.593Z,1175
2016-09-18T10:02:13.070Z,1330
2016-09-18T10:03:14.521Z,1245
2016-09-18T10:04:13.527Z,1350
2016-09-18T10:05:13.660Z,1225
2016-09-18T10:06:15.894Z,1060
2016-09-18T10:07:13.512Z,1135
2016-09-18T10:08:13.833Z,1075
2016-09-18T10:09:14.482Z,1115
2016-09-18T10:10:14.587Z,1105
2016-09-18T10:11:12.933Z,1070
2016-09-18T10:12:13.039Z,865
2016-09-18T10:13:15.210Z,1110
2016-09-18T10:14:14.236Z,915
2016-09-18T10:15:13.130Z,925
2016-09-18T10:16:13.182Z,1030
2016-09-18T10:17:14.284Z,880
2016-09-18T10:18:14.343Z,830
2016-09-18T10:19:15.488Z,830
2016-09-18T10:20:14.854Z,1095
2016-09-18T10:21:15.502Z,775
2016-09-18T10:22:13.910Z,905
2016-09-18T10:23:13.748Z,630
2016-09-18T10:24:16.287Z,850
2016-09-18T10:25:14.308Z,880
2016-09-18T10:26:13.913Z,945
2016-09-18T10:27:14.273Z,880
2016-09-18T10:28:16.096Z,730
2016-09-18T10:29:14.669Z,885
2016-09-18T10:30:14.117Z,705
2016-09-18T10:31:13.303Z,615
2016-09-18T10:32:15.644Z,650
2016-09-18T10:33:14.790Z,860
2016-09-18T10:34:14.595Z,840
2016-09-18T10:35:14.911Z,860
2016-09-18T10:36:14.228Z,670
2016-09-18T10:37:16.461Z,735
2016-09-18T10:38:14.873Z,870
2016-09-18T10:39:13.974Z,600
2016-09-18T10:40:13.935Z,715
2016-09-18T10:41:15.391Z,635
2016-09-18T10:42:15.664Z,660
2016-09-18T10:43:14.015Z,895
2016-09-18T10:44:14.287Z,925
2016-09-18T10:45:16.094Z,935
2016-09-18T10:46:13.822Z,940
2016-09-18T10:47:14.755Z,950
2016-09-18T10:48:16.110Z,730
2016-09-18T10:49:15.214Z,890
2016-09-18T10:50:14.368Z,880
2016-09-18T10:51:14.026Z,915
2016-09-18T10:52:15.316Z,960
2016-09-18T10:53:16.457Z,845
2016-09-18T10:54:15.482Z,965
2016-09-18T10:55:15.501Z,850
2016-09-18T10:56:16.005Z,825
2016-09-18T10:57:14.560Z,790
2016-09-18T10:58:16.562Z,865
2016-09-18T10:59:13.764Z,655
2016-09-18T11:00:15.376Z,780
2016-09-18T11:01:15.679Z,895
2016-09-18T11:02:14.747Z,710
2016-09-18T11:03:15.766Z,865
2016-09-18T11:04:14.233Z,725
2016-09-18T11:05:16.536Z,800
2016-09-18T11:06:15.717Z,830
2016-09-18T11:07:14.317Z,745
2016-09-18T11:08:16.086Z,810
2016-09-18T11:09:15.483Z,810
2016-09-18T11:10:15.580Z,835
2016-09-18T11:11:16.251Z,840
2016-09-18T11:12:16.852Z,790
2016-09-18T11:13:15.047Z,835
2016-09-18T11:14:15.799Z,835
2016-09-18T11:15:16.991Z,665
2016-09-18T11:16:16.350Z,785
2016-09-18T11:17:16.372Z,800
2016-09-18T11:18:16.151Z,750
2016-09-18T11:19:14.740Z,730
2016-09-18T11:20:16.582Z,805
2016-09-18T11:21:17.985Z,710
2016-09-18T11:22:15.916Z,600
2016-09-18T11:23:17.942Z,775
2016-09-18T11:24:16.679Z,790
2016-09-18T11:25:15.534Z,785
2016-09-18T11:26:14.548Z,750
2016-09-18T11:27:15.652Z,765
2016-09-18T11:28:16.650Z,755
2016-09-18T11:29:16.203Z,750
2016-09-18T11:30:15.587Z,735
2016-09-18T11:31:16.342Z,745
2016-09-18T11:32:14.733Z,740
2016-09-18T11:33:15.908Z,715
2016-09-18T11:34:15.956Z,710
2016-09-18T11:35:16.952Z,720
2016-09-18T11:36:17.244Z,720
2016-09-18T11:37:16.643Z,720
2016-09-18T11:38:16.552Z,725
2016-09-18T11:39:15.745Z,740
2016-09-18T11:40:15.744Z,755
2016-09-18T11:41:16.144Z,755
2016-09-18T11:42:16.102Z,745
2016-09-18T11:43:16.144Z,730
2016-09-18T11:44:15.759Z,735
2016-09-18T11:45:16.042Z,735
2016-09-18T11:46:17.078Z,750
2016-09-18T11:47:17.384Z,585
2016-09-18T11:48:15.957Z,590
2016-09-18T11:49:18.623Z,740
2016-09-18T11:50:16.445Z,620
2016-09-18T11:51:18.324Z,680
2016-09-18T11:52:16.165Z,860
2016-09-18T11:53:18.861Z,975
2016-09-18T11:54:15.822Z,1030
2016-09-18T11:55:16.859Z,930
2016-09-18T11:56:16.936Z,920
2016-09-18T11:57:16.488Z,815
2016-09-18T11:58:16.343Z,750
2016-09-18T11:59:16.746Z,735
2016-09-18T12:00:16.775Z,815
2016-09-18T12:01:16.945Z,805
2016-09-18T12:02:15.947Z,805
2016-09-18T12:03:17.476Z,805
2016-09-18T12:04:17.257Z,795
2016-09-18T12:05:16.892Z,615
2016-09-18T12:06:17.456Z,660
2016-09-18T12:07:17.807Z,670
2016-09-18T12:08:16.988Z,735
2016-09-18T12:09:18.023Z,970
2016-09-18T12:10:17.049Z,875
2016-09-18T12:11:17.319Z,915
2016-09-18T12:12:17.691Z,900
2016-09-18T12:13:19.950Z,955
2016-09-18T12:14:17.913Z,830
2016-09-18T12:15:16.978Z,880
2016-09-18T12:16:16.953Z,830
2016-09-18T12:17:17.998Z,870
2016-09-18T12:18:17.942Z,850
2016-09-18T12:19:18.678Z,830
2016-09-18T12:20:16.431Z,1035
2016-09-18T12:21:17.632Z,1080
2016-09-18T12:22:17.164Z,1075
2016-09-18T12:23:17.965Z,1075
2016-09-18T12:24:17.880Z,1095
2016-09-18T12:25:17.755Z,955
2016-09-18T12:26:18.142Z,1005
2016-09-18T12:27:16.855Z,1150
2016-09-18T12:28:18.967Z,1115
2016-09-18T12:29:17.052Z,1125
2016-09-18T12:30:16.857Z,1085
2016-09-18T12:31:19.076Z,930
2016-09-18T12:32:19.021Z,790
2016-09-18T12:33:16.912Z,680
2016-09-18T12:34:17.241Z,630
2016-09-18T12:35:18.815Z,685
2016-09-18T12:36:16.797Z,685
2016-09-18T12:37:19.023Z,735
2016-09-18T12:38:18.679Z,780
2016-09-18T12:39:18.465Z,835
2016-09-18T12:40:18.657Z,1075
2016-09-18T12:41:17.501Z,1095
2016-09-18T12:42:16.724Z,940
2016-09-18T12:43:19.950Z,980
2016-09-18T12:44:19.081Z,890
2016-09-18T12:45:19.303Z,810
2016-09-18T12:46:18.642Z,800
2016-09-18T12:47:19.071Z,805
2016-09-18T12:48:18.197Z,800
2016-09-18T12:49:18.827Z,720
2016-09-18T12:50:18.262Z,855
2016-09-18T12:51:18.083Z,910
2016-09-18T12:52:19.654Z,975
2016-09-18T12:53:18.668Z,905
2016-09-18T12:54:20.313Z,865
2016-09-18T12:55:18.817Z,1065
2016-09-18T12:56:20.432Z,1120
2016-09-18T12:57:19.268Z,1025
2016-09-18T12:58:19.609Z,940
2016-09-18T12:59:18.385Z,750
2016-09-18T13:00:18.826Z,660
2016-09-18T13:01:19.895Z,665
2016-09-18T13:02:19.381Z,665
2016-09-18T13:03:19.564Z,615
2016-09-18T13:04:18.357Z,560
2016-09-18T13:05:20.529Z,550
2016-09-18T13:06:17.910Z,515
2016-09-18T13:07:19.883Z,510
2016-09-18T13:08:21.994Z,515
2016-09-18T13:09:19.250Z,520
2016-09-18T13:10:18.782Z,490
2016-09-18T13:11:19.134Z,650
2016-09-18T13:12:18.388Z,655
2016-09-18T13:13:19.284Z,660
2016-09-18T13:14:19.210Z,680
2016-09-18T13:15:18.591Z,705
2016-09-18T13:16:19.304Z,730
2016-09-18T13:17:19.929Z,765
2016-09-18T13:18:19.539Z,825
2016-09-18T13:19:19.285Z,880
2016-09-18T13:20:20.654Z,920
2016-09-18T13:21:18.281Z,935
2016-09-18T13:22:20.730Z,920
2016-09-18T13:23:21.006Z,925
2016-09-18T13:24:19.806Z,845
2016-09-18T13:25:21.430Z,940
2016-09-18T13:26:18.805Z,925
2016-09-18T13:27:19.117Z,905
2016-09-18T13:28:19.166Z,840
2016-09-18T13:29:20.470Z,715
2016-09-18T13:30:19.150Z,740
2016-09-18T13:31:18.708Z,610
2016-09-18T13:32:19.925Z,585
2016-09-18T13:33:19.209Z,475
2016-09-18T13:34:19.831Z,460
2016-09-18T13:35:19.633Z,525
2016-09-18T13:36:19.151Z,505
2016-09-18T13:37:19.356Z,650
2016-09-18T13:38:21.251Z,655
2016-09-18T13:39:19.676Z,665
2016-09-18T13:40:20.125Z,675
2016-09-18T13:41:20.541Z,685
2016-09-18T13:42:19.953Z,680
2016-09-18T13:43:19.047Z,675
2016-09-18T13:44:19.279Z,670
2016-09-18T13:45:20.809Z,665
2016-09-18T13:46:21.770Z,660
2016-09-18T13:47:20.170Z,645
2016-09-18T13:48:19.767Z,650
2016-09-18T13:49:19.579Z,640
2016-09-18T13:50:20.053Z,625
2016-09-18T13:51:22.569Z,620
2016-09-18T13:52:19.823Z,625
2016-09-18T13:53:19.461Z,635
2016-09-18T13:54:20.577Z,630
2016-09-18T13:55:20.656Z,625
2016-09-18T13:56:21.587Z,630
2016-09-18T13:57:19.601Z,620
2016-09-18T13:58:20.061Z,610
2016-09-18T13:59:20.192Z,605
2016-09-18T14:00:22.131Z,600
2016-09-18T14:01:21.876Z,595
2016-09-18T14:02:23.247Z,580
2016-09-18T14:03:19.844Z,570
2016-09-18T14:04:20.006Z,565
2016-09-18T14:05:20.941Z,560
2016-09-18T14:06:23.154Z,555